Hartsville, Indiana
Current Conditions -  °F | °C
As of 9:53 PM on Tuesday 21 Oct 2014 (Local Time) from KGEZ Reporting Station
Overcast Overcast  
Wind Chill: 47°   Ceiling: 4900
Heat Index: 49°   Visibility: 10mi
Dew Point: 41°   Wind: 6mph
Humidity: 74%   Direction: 20°NNE
Pressure: 30.17"   Gusts: NA
Location:  39.27°N, 85.7°W
Report Text: KGEZ 220153Z AUTO 02005KT 10SM OVC049 09/05 A3017 RMK AO2 SLP218 T00940050
Loading
Personal Weather Stations






























Interactive Weather Map
Tropical Storm Tracking
New forecast layout! Learn more

10-Day Weather Forecast

Advertisements
Track Severe Weather on mobile